createdAt,value
2023-02-23T00:00:28.185Z,13.83
2023-02-23T00:02:50.341Z,14.77
2023-02-23T00:05:11.973Z,15.20
2023-02-23T00:07:34.152Z,15.43
2023-02-23T00:09:56.981Z,14.87
2023-02-23T00:12:20.694Z,15.80
2023-02-23T00:14:42.154Z,13.77
2023-02-23T00:17:03.674Z,14.67
2023-02-23T00:19:25.350Z,14.63
2023-02-23T00:21:46.838Z,12.10
2023-02-23T00:24:10.943Z,12.17
2023-02-23T00:26:35.239Z,13.87
2023-02-23T00:28:57.880Z,17.77
2023-02-23T00:31:25.399Z,15.00
2023-02-23T00:33:46.870Z,12.27
2023-02-23T00:36:13.857Z,12.67
2023-02-23T00:38:36.449Z,15.10
2023-02-23T00:40:57.892Z,13.30
2023-02-23T00:43:20.098Z,11.70
2023-02-23T00:45:41.843Z,11.30
2023-02-23T00:48:03.833Z,18.00
2023-02-23T00:50:25.698Z,16.17
2023-02-23T00:52:47.149Z,15.00
2023-02-23T00:55:11.605Z,11.97
2023-02-23T00:57:33.557Z,15.90
2023-02-23T00:59:55.017Z,13.63
2023-02-23T01:02:16.492Z,12.43
2023-02-23T01:04:38.008Z,14.30
2023-02-23T01:06:59.416Z,13.60
2023-02-23T01:09:28.049Z,15.97
2023-02-23T01:11:49.539Z,12.80
2023-02-23T01:14:11.090Z,12.80
2023-02-23T01:16:34.412Z,11.90
2023-02-23T01:18:58.066Z,14.33
2023-02-23T01:21:25.451Z,17.63
2023-02-23T01:23:47.758Z,13.77
2023-02-23T01:26:15.942Z,11.93
2023-02-23T01:28:37.371Z,12.40
2023-02-23T01:30:58.998Z,15.77
2023-02-23T01:33:20.529Z,17.83
2023-02-23T01:35:43.636Z,16.97
2023-02-23T01:38:05.263Z,17.20
2023-02-23T01:40:30.283Z,15.87
2023-02-23T01:42:52.130Z,16.90
2023-02-23T01:45:26.163Z,14.80
2023-02-23T01:47:48.025Z,14.70
2023-02-23T01:50:11.817Z,18.17
2023-02-23T01:52:37.013Z,13.37
2023-02-23T01:54:58.499Z,15.60
2023-02-23T01:57:22.327Z,14.30
2023-02-23T01:59:47.435Z,24.53
2023-02-23T02:02:09.466Z,24.87
2023-02-23T02:04:38.186Z,18.50
2023-02-23T02:07:03.707Z,15.07
2023-02-23T02:09:25.697Z,13.37
2023-02-23T02:11:54.099Z,21.30
2023-02-23T02:14:29.490Z,20.13
2023-02-23T02:17:14.496Z,17.00
2023-02-23T02:19:44.841Z,17.43
2023-02-23T02:22:34.385Z,22.27
2023-02-23T02:25:19.644Z,20.93
2023-02-23T02:28:08.902Z,20.47
2023-02-23T02:30:48.832Z,17.70
2023-02-23T02:33:47.655Z,14.77
2023-02-23T02:36:21.699Z,15.17
2023-02-23T02:38:53.829Z,23.87
2023-02-23T02:41:53.399Z,18.10
2023-02-23T02:44:27.499Z,18.77
2023-02-23T02:46:57.965Z,18.13
2023-02-23T02:49:45.350Z,16.70
2023-02-23T02:52:29.458Z,17.27
2023-02-23T02:54:58.383Z,19.13
2023-02-23T02:57:22.608Z,20.20
2023-02-23T03:00:05.376Z,16.07
2023-02-23T03:02:45.260Z,18.47
2023-02-23T03:05:32.917Z,20.13
2023-02-23T03:08:32.204Z,14.60
2023-02-23T03:11:21.997Z,16.80
2023-02-23T03:14:11.553Z,17.60
2023-02-23T03:17:20.202Z,19.87
2023-02-23T03:20:12.889Z,19.07
2023-02-23T03:23:01.089Z,15.67
2023-02-23T03:25:51.746Z,23.40
2023-02-23T03:28:45.205Z,19.70
2023-02-23T03:31:45.957Z,18.53
2023-02-23T03:34:34.884Z,22.53
2023-02-23T03:37:29.723Z,20.47
2023-02-23T03:40:21.429Z,18.20
2023-02-23T03:43:02.953Z,17.97
2023-02-23T03:45:44.942Z,18.87
2023-02-23T03:48:28.747Z,23.73
2023-02-23T03:51:13.569Z,21.93
2023-02-23T03:54:15.655Z,23.63
2023-02-23T03:57:00.855Z,32.30
2023-02-23T03:59:45.412Z,41.37
2023-02-23T04:02:27.729Z,45.03
2023-02-23T04:05:08.739Z,29.37
2023-02-23T04:07:49.878Z,18.70
2023-02-23T04:10:30.155Z,19.97
2023-02-23T04:13:16.178Z,26.37
2023-02-23T04:15:41.213Z,40.80
2023-02-23T04:18:07.074Z,21.83
2023-02-23T04:20:28.800Z,24.93
2023-02-23T04:22:50.358Z,30.80
2023-02-23T04:25:16.130Z,38.90
2023-02-23T04:27:38.928Z,50.77
2023-02-23T04:30:00.583Z,107.10
2023-02-23T04:32:22.235Z,65.80
2023-02-23T04:34:44.939Z,100.00
2023-02-23T04:37:06.415Z,112.03
2023-02-23T04:39:29.073Z,97.93
2023-02-23T04:41:50.690Z,87.77
2023-02-23T04:44:12.227Z,46.53
2023-02-23T04:46:33.764Z,44.53
2023-02-23T04:48:55.169Z,41.03
2023-02-23T04:51:16.936Z,39.33
2023-02-23T04:53:39.373Z,44.60
2023-02-23T04:56:00.853Z,38.13
2023-02-23T04:58:22.321Z,35.83
2023-02-23T05:00:43.962Z,32.67
2023-02-23T05:03:05.587Z,34.60
2023-02-23T05:05:27.064Z,114.63
2023-02-23T05:07:48.586Z,75.03
2023-02-23T05:10:11.299Z,70.20
2023-02-23T05:12:32.922Z,80.63
2023-02-23T05:14:54.358Z,51.67
2023-02-23T05:17:15.858Z,51.60
2023-02-23T05:19:37.954Z,56.03
2023-02-23T05:21:59.421Z,61.53
2023-02-23T05:24:20.880Z,81.63
2023-02-23T05:26:42.359Z,78.13
2023-02-23T05:29:04.036Z,74.83
2023-02-23T05:31:26.594Z,70.20
2023-02-23T05:33:48.177Z,100.47
2023-02-23T05:36:16.677Z,60.33
2023-02-23T05:38:39.580Z,58.30
2023-02-23T05:41:05.136Z,45.67
2023-02-23T05:43:26.918Z,34.60
2023-02-23T05:45:48.385Z,36.80
2023-02-23T05:48:11.123Z,44.00
2023-02-23T05:50:32.613Z,41.00
2023-02-23T05:52:54.075Z,42.47
2023-02-23T05:55:15.580Z,41.43
2023-02-23T05:57:37.491Z,48.60
2023-02-23T05:59:58.917Z,45.70
2023-02-23T06:02:20.365Z,47.30
2023-02-23T06:04:42.068Z,39.70
2023-02-23T06:07:03.517Z,43.63
2023-02-23T06:09:25.185Z,41.37
2023-02-23T06:11:46.632Z,52.37
2023-02-23T06:14:08.069Z,37.07
2023-02-23T06:16:29.650Z,40.13
2023-02-23T06:18:51.167Z,42.93
2023-02-23T06:21:12.735Z,41.30
2023-02-23T06:23:34.314Z,47.47
2023-02-23T06:25:56.222Z,51.20
2023-02-23T06:28:17.689Z,45.20
2023-02-23T06:30:39.796Z,41.17
2023-02-23T06:33:01.583Z,43.87
2023-02-23T06:35:24.210Z,41.43
2023-02-23T06:37:45.697Z,47.87
2023-02-23T06:40:07.680Z,44.80
2023-02-23T06:42:29.113Z,43.07
2023-02-23T06:44:50.666Z,44.67
2023-02-23T06:47:12.164Z,40.83
2023-02-23T06:49:33.747Z,45.13
2023-02-23T06:51:55.334Z,49.20
2023-02-23T06:54:16.776Z,50.33
2023-02-23T06:56:38.202Z,52.37
2023-02-23T06:58:59.648Z,46.90
2023-02-23T07:01:21.357Z,47.43
2023-02-23T07:03:42.956Z,45.90
2023-02-23T07:06:05.766Z,53.27
2023-02-23T07:08:27.290Z,56.60
2023-02-23T07:10:48.838Z,41.27
2023-02-23T07:13:10.402Z,43.07
2023-02-23T07:15:31.822Z,57.57
2023-02-23T07:17:53.281Z,66.80
2023-02-23T07:20:17.809Z,45.40
2023-02-23T07:22:40.070Z,45.03
2023-02-23T07:25:01.654Z,44.73
2023-02-23T07:27:23.148Z,46.37
2023-02-23T07:29:44.629Z,43.80
2023-02-23T07:32:06.260Z,50.00
2023-02-23T07:34:27.817Z,45.93
2023-02-23T07:36:49.316Z,51.17
2023-02-23T07:39:10.855Z,47.93
2023-02-23T07:41:32.861Z,46.07
2023-02-23T07:43:54.331Z,49.27
2023-02-23T07:46:16.380Z,42.47
2023-02-23T07:48:40.038Z,44.03
2023-02-23T07:51:01.460Z,53.20
2023-02-23T07:53:23.487Z,52.80
2023-02-23T07:55:45.190Z,56.43
2023-02-23T07:58:07.688Z,48.10
2023-02-23T08:00:29.242Z,50.00
2023-02-23T08:02:53.119Z,49.53
2023-02-23T08:05:14.563Z,50.77
2023-02-23T08:07:36.026Z,46.63
2023-02-23T08:09:57.458Z,46.00
2023-02-23T08:12:19.211Z,49.40
2023-02-23T08:14:40.697Z,48.90
2023-02-23T08:17:02.212Z,46.00
2023-02-23T08:19:23.847Z,51.97
2023-02-23T08:21:45.447Z,45.10
2023-02-23T08:24:07.091Z,46.70
2023-02-23T08:26:28.539Z,43.20
2023-02-23T08:28:49.998Z,42.57
2023-02-23T08:31:13.251Z,43.33
2023-02-23T08:33:34.876Z,43.70
2023-02-23T08:35:59.533Z,45.60
2023-02-23T08:38:21.072Z,45.63
2023-02-23T08:40:43.325Z,49.37
2023-02-23T08:43:04.874Z,47.33
2023-02-23T08:45:29.378Z,42.33
2023-02-23T08:47:51.168Z,45.07
2023-02-23T08:50:14.150Z,43.33
2023-02-23T08:52:35.625Z,47.07
2023-02-23T08:54:57.715Z,45.47
2023-02-23T08:57:19.402Z,53.10
2023-02-23T08:59:41.593Z,52.17
2023-02-23T09:02:03.259Z,57.53
2023-02-23T09:04:24.740Z,59.53
2023-02-23T09:06:47.618Z,56.17
2023-02-23T09:09:09.167Z,53.97
2023-02-23T09:11:30.619Z,57.30
2023-02-23T09:13:52.130Z,56.27
2023-02-23T09:16:13.824Z,54.33
2023-02-23T09:18:35.713Z,56.13
2023-02-23T09:20:57.288Z,55.30
2023-02-23T09:23:18.750Z,53.43
2023-02-23T09:25:43.334Z,55.13
2023-02-23T09:28:04.940Z,58.87
2023-02-23T09:30:27.568Z,50.97
2023-02-23T09:32:53.619Z,50.73
2023-02-23T09:35:17.969Z,55.83
2023-02-23T09:37:39.432Z,51.57
2023-02-23T09:40:00.892Z,51.77
2023-02-23T09:42:44.157Z,49.57
2023-02-23T09:45:20.233Z,50.73
2023-02-23T09:48:09.283Z,50.47
2023-02-23T09:50:34.924Z,50.10
2023-02-23T09:53:03.620Z,52.77
2023-02-23T09:55:26.877Z,54.37
2023-02-23T09:57:50.685Z,57.73
2023-02-23T10:00:18.632Z,56.57
2023-02-23T10:02:53.883Z,53.73
2023-02-23T10:05:16.038Z,55.07
2023-02-23T10:07:47.819Z,56.80
2023-02-23T10:10:21.745Z,52.60
2023-02-23T10:13:10.234Z,63.77
2023-02-23T10:15:50.610Z,66.23
2023-02-23T10:18:22.285Z,53.97
2023-02-23T10:20:50.986Z,57.70
2023-02-23T10:23:16.898Z,56.00
2023-02-23T10:25:43.367Z,55.57
2023-02-23T10:28:04.937Z,52.03
2023-02-23T10:30:29.585Z,52.93
2023-02-23T10:33:10.636Z,51.13
2023-02-23T10:35:33.773Z,51.83
2023-02-23T10:37:56.311Z,50.67
2023-02-23T10:40:23.082Z,47.77
2023-02-23T10:42:44.610Z,48.77
2023-02-23T10:45:22.693Z,49.13
2023-02-23T10:47:45.165Z,47.43
2023-02-23T10:50:09.984Z,81.77
2023-02-23T10:52:43.738Z,104.33
2023-02-23T10:55:08.195Z,81.63
2023-02-23T10:57:33.150Z,63.43
2023-02-23T11:00:32.848Z,69.13
2023-02-23T11:02:55.694Z,84.90
2023-02-23T11:05:34.394Z,77.13
2023-02-23T11:08:21.168Z,67.10
2023-02-23T11:10:42.642Z,58.70
2023-02-23T11:13:04.042Z,50.03
2023-02-23T11:15:39.383Z,43.43
2023-02-23T11:18:21.647Z,39.53
2023-02-23T11:20:43.275Z,33.20
2023-02-23T11:23:22.518Z,34.63
2023-02-23T11:25:46.131Z,29.80
2023-02-23T11:28:20.895Z,30.63
2023-02-23T11:30:42.997Z,27.23
2023-02-23T11:33:12.087Z,29.38
2023-02-23T11:35:33.523Z,25.10
2023-02-23T11:37:55.734Z,26.25
2023-02-23T11:40:27.963Z,30.27
2023-02-23T11:43:06.402Z,25.50
2023-02-23T11:45:33.666Z,27.35
2023-02-23T11:47:58.755Z,23.15
2023-02-23T11:50:22.122Z,24.40
2023-02-23T11:52:44.672Z,21.27
2023-02-23T11:55:08.100Z,23.52
2023-02-23T11:57:33.741Z,22.55
2023-02-23T11:59:59.351Z,22.70
2023-02-23T12:02:30.090Z,22.95
2023-02-23T12:05:06.354Z,23.85
2023-02-23T12:07:41.869Z,21.38
2023-02-23T12:10:16.545Z,24.65
2023-02-23T12:12:51.089Z,22.13
2023-02-23T12:15:24.842Z,12.67
2023-02-23T12:17:53.613Z,7.37
2023-02-23T12:20:21.760Z,7.90
2023-02-23T12:22:47.985Z,11.43
2023-02-23T12:25:35.938Z,11.00
2023-02-23T12:28:18.798Z,7.47
2023-02-23T12:30:46.782Z,9.63
2023-02-23T12:33:18.070Z,9.37
2023-02-23T12:36:11.445Z,9.30
2023-02-23T12:38:56.092Z,8.90
2023-02-23T12:41:30.219Z,7.20
2023-02-23T12:44:02.442Z,5.85
2023-02-23T12:46:48.938Z,8.00
2023-02-23T12:49:27.789Z,5.85
2023-02-23T12:51:58.376Z,6.28
2023-02-23T12:54:20.064Z,7.25
2023-02-23T12:56:58.882Z,7.35
2023-02-23T12:59:26.540Z,7.32
2023-02-23T13:02:04.827Z,7.20
2023-02-23T13:04:49.768Z,6.68
2023-02-23T13:07:36.555Z,5.88
2023-02-23T13:10:23.050Z,6.72
2023-02-23T13:13:11.461Z,7.57
2023-02-23T13:15:45.092Z,6.97
2023-02-23T13:18:23.853Z,6.03
2023-02-23T13:20:51.758Z,6.28
2023-02-23T13:23:37.819Z,7.70
2023-02-23T13:26:10.542Z,7.07
2023-02-23T13:28:56.628Z,6.07
2023-02-23T13:31:30.422Z,7.40
2023-02-23T13:33:54.731Z,7.40
2023-02-23T13:36:17.409Z,6.77
2023-02-23T13:38:46.213Z,6.93
2023-02-23T13:41:17.740Z,7.73
2023-02-23T13:43:53.149Z,7.87
2023-02-23T13:46:45.224Z,8.23
2023-02-23T13:49:31.829Z,8.10
2023-02-23T13:52:00.704Z,8.80
2023-02-23T13:54:25.473Z,7.50
2023-02-23T13:56:54.966Z,7.37
2023-02-23T13:59:22.519Z,7.73
2023-02-23T14:01:47.612Z,7.07
2023-02-23T14:04:22.286Z,7.60
2023-02-23T14:06:56.745Z,40.33
2023-02-23T14:09:24.392Z,6.63
2023-02-23T14:11:56.563Z,6.97
2023-02-23T14:14:33.258Z,7.37
2023-02-23T14:17:14.688Z,11.77
2023-02-23T14:19:38.390Z,69.17
2023-02-23T14:22:05.299Z,7.03
2023-02-23T14:24:27.782Z,10.63
2023-02-23T14:27:06.499Z,10.30
2023-02-23T14:29:31.983Z,8.70
2023-02-23T14:32:13.901Z,9.77
2023-02-23T14:34:59.477Z,10.70
2023-02-23T14:37:25.517Z,13.13
2023-02-23T14:39:50.637Z,14.17
2023-02-23T14:42:22.233Z,7.97
2023-02-23T14:44:51.344Z,17.67
2023-02-23T14:47:16.169Z,30.37
2023-02-23T14:49:43.556Z,33.47
2023-02-23T14:52:14.303Z,22.53
2023-02-23T14:54:38.314Z,15.33
2023-02-23T14:57:03.281Z,9.67
2023-02-23T14:59:35.719Z,9.27
2023-02-23T15:02:00.390Z,12.40
2023-02-23T15:04:27.517Z,13.30
2023-02-23T15:06:49.500Z,11.83
2023-02-23T15:09:18.810Z,10.50
2023-02-23T15:11:43.619Z,11.27
2023-02-23T15:14:07.363Z,10.50
2023-02-23T15:16:37.085Z,11.93
2023-02-23T15:19:32.166Z,11.47
2023-02-23T15:21:56.164Z,15.93
2023-02-23T15:24:24.651Z,12.87
2023-02-23T15:26:46.357Z,12.27
2023-02-23T15:29:10.985Z,11.80
2023-02-23T15:31:32.671Z,12.63
2023-02-23T15:33:55.744Z,14.40
2023-02-23T15:36:34.640Z,12.77
2023-02-23T15:38:59.772Z,14.23
2023-02-23T15:41:28.595Z,14.60
2023-02-23T15:43:50.324Z,13.80
2023-02-23T15:46:24.105Z,16.83
2023-02-23T15:48:49.267Z,13.83
2023-02-23T15:51:22.768Z,14.60
2023-02-23T15:53:44.389Z,12.73
2023-02-23T15:56:30.635Z,13.87
2023-02-23T15:58:57.160Z,11.73
2023-02-23T16:01:25.005Z,15.57
2023-02-23T16:03:57.452Z,14.97
2023-02-23T16:06:25.689Z,12.33
2023-02-23T16:08:58.098Z,13.73
2023-02-23T16:11:20.386Z,15.73
2023-02-23T16:13:46.604Z,16.23
2023-02-23T16:16:11.725Z,17.80
2023-02-23T16:18:41.655Z,23.57
2023-02-23T16:21:04.571Z,25.10
2023-02-23T16:23:34.284Z,23.37
2023-02-23T16:26:01.527Z,14.27
2023-02-23T16:28:24.712Z,22.63
2023-02-23T16:31:03.529Z,19.43
2023-02-23T16:33:30.611Z,19.20
2023-02-23T16:36:08.198Z,22.70
2023-02-23T16:38:42.438Z,25.23
2023-02-23T16:41:05.485Z,32.20
2023-02-23T16:43:27.189Z,35.63
2023-02-23T16:45:48.940Z,32.23
2023-02-23T16:48:14.212Z,29.83
2023-02-23T16:50:40.524Z,30.10
2023-02-23T16:53:03.518Z,26.47
2023-02-23T16:55:28.095Z,27.13
2023-02-23T16:57:51.677Z,30.67
2023-02-23T17:00:18.426Z,34.83
2023-02-23T17:02:39.948Z,26.07
2023-02-23T17:05:01.404Z,26.93
2023-02-23T17:07:24.128Z,20.73
2023-02-23T17:09:45.845Z,17.60
2023-02-23T17:12:12.986Z,19.50
2023-02-23T17:14:34.466Z,15.97
2023-02-23T17:16:56.213Z,14.47
2023-02-23T17:19:19.392Z,18.33
2023-02-23T17:21:40.879Z,18.17
2023-02-23T17:24:03.751Z,19.87
2023-02-23T17:26:26.037Z,16.47
2023-02-23T17:28:47.909Z,13.43
2023-02-23T17:31:10.043Z,16.40
2023-02-23T17:33:33.644Z,16.70
2023-02-23T17:35:55.108Z,17.97
2023-02-23T17:38:21.415Z,16.97
2023-02-23T17:40:44.104Z,15.63
2023-02-23T17:43:09.743Z,17.37
2023-02-23T17:45:31.926Z,19.17
2023-02-23T17:47:53.856Z,16.90
2023-02-23T17:50:15.465Z,17.93
2023-02-23T17:52:37.057Z,17.57
2023-02-23T17:55:00.194Z,16.43
2023-02-23T17:57:22.973Z,16.40
2023-02-23T17:59:44.540Z,16.20
2023-02-23T18:02:07.134Z,16.33
2023-02-23T18:04:28.624Z,16.37
2023-02-23T18:06:50.084Z,17.70
2023-02-23T18:09:14.504Z,17.13
2023-02-23T18:11:35.987Z,19.63
2023-02-23T18:13:57.435Z,16.93
2023-02-23T18:16:20.238Z,22.80
2023-02-23T18:18:45.053Z,18.93
2023-02-23T18:21:12.473Z,20.13
2023-02-23T18:23:33.934Z,20.30
2023-02-23T18:25:55.526Z,21.33
2023-02-23T18:28:18.471Z,21.00
2023-02-23T18:30:41.542Z,22.67
2023-02-23T18:33:04.100Z,19.43
2023-02-23T18:35:25.874Z,18.10
2023-02-23T18:37:47.436Z,17.70
2023-02-23T18:40:21.100Z,19.47
2023-02-23T18:42:42.544Z,17.67
2023-02-23T18:45:04.455Z,17.57
2023-02-23T18:47:25.968Z,16.73
2023-02-23T18:49:47.659Z,19.17
2023-02-23T18:52:11.959Z,18.97
2023-02-23T18:54:33.392Z,21.80
2023-02-23T18:56:55.903Z,27.13
2023-02-23T18:59:17.351Z,33.07
2023-02-23T19:01:39.400Z,27.07
2023-02-23T19:04:02.215Z,23.27
2023-02-23T19:06:24.650Z,23.37
2023-02-23T19:08:54.032Z,24.07
2023-02-23T19:11:15.509Z,22.47
2023-02-23T19:13:40.407Z,24.30
2023-02-23T19:16:07.465Z,23.27
2023-02-23T19:18:28.953Z,21.27
2023-02-23T19:20:55.353Z,22.43
2023-02-23T19:23:16.849Z,26.40
2023-02-23T19:25:38.630Z,24.03
2023-02-23T19:28:00.107Z,22.50
2023-02-23T19:30:21.852Z,21.40
2023-02-23T19:32:43.988Z,20.93
2023-02-23T19:35:08.127Z,19.27
2023-02-23T19:37:29.728Z,20.63
2023-02-23T19:39:51.194Z,23.57
2023-02-23T19:42:18.236Z,24.60
2023-02-23T19:44:39.679Z,26.33
2023-02-23T19:47:01.198Z,22.70
2023-02-23T19:49:23.194Z,25.63
2023-02-23T19:51:44.989Z,22.53
2023-02-23T19:54:07.548Z,27.40
2023-02-23T19:56:29.416Z,23.93
2023-02-23T19:58:51.697Z,26.53
2023-02-23T20:01:16.743Z,23.43
2023-02-23T20:03:43.195Z,25.50
2023-02-23T20:06:06.735Z,28.43
2023-02-23T20:08:28.206Z,25.50
2023-02-23T20:10:50.652Z,26.83
2023-02-23T20:13:12.125Z,26.87
2023-02-23T20:15:33.596Z,26.50
2023-02-23T20:17:55.038Z,26.37
2023-02-23T20:20:16.731Z,31.20
2023-02-23T20:22:41.419Z,29.47
2023-02-23T20:25:05.942Z,33.03
2023-02-23T20:27:30.375Z,31.67
2023-02-23T20:29:53.554Z,31.07
2023-02-23T20:32:15.132Z,29.33
2023-02-23T20:34:39.198Z,28.20
2023-02-23T20:37:00.700Z,30.57
2023-02-23T20:39:24.369Z,30.10
2023-02-23T20:41:47.800Z,30.83
2023-02-23T20:44:10.708Z,31.37
2023-02-23T20:46:32.299Z,31.53
2023-02-23T20:48:54.302Z,31.43
2023-02-23T20:51:18.737Z,32.10
2023-02-23T20:53:41.937Z,28.50
2023-02-23T20:56:05.716Z,28.03
2023-02-23T20:58:28.487Z,33.03
2023-02-23T21:00:50.332Z,32.13
2023-02-23T21:03:11.748Z,33.13
2023-02-23T21:05:38.350Z,41.03
2023-02-23T21:08:03.084Z,37.50
2023-02-23T21:10:24.556Z,51.00
2023-02-23T21:12:46.606Z,31.30
2023-02-23T21:15:09.400Z,29.30
2023-02-23T21:17:30.885Z,22.43
2023-02-23T21:19:52.344Z,21.63
2023-02-23T21:22:16.347Z,22.60
2023-02-23T21:24:40.985Z,25.37
2023-02-23T21:27:05.295Z,21.67
2023-02-23T21:29:27.936Z,23.43
2023-02-23T21:31:49.607Z,27.83
2023-02-23T21:34:11.563Z,26.90
2023-02-23T21:36:34.148Z,26.93
2023-02-23T21:38:55.622Z,27.47
2023-02-23T21:41:17.168Z,27.30
2023-02-23T21:43:41.306Z,27.03
2023-02-23T21:46:11.285Z,29.23
2023-02-23T21:48:32.758Z,26.30
2023-02-23T21:50:54.212Z,30.37
2023-02-23T21:53:15.709Z,30.87
2023-02-23T21:55:38.716Z,31.83
2023-02-23T21:58:00.277Z,25.47
2023-02-23T22:00:22.822Z,25.10
2023-02-23T22:02:46.303Z,25.47
2023-02-23T22:05:09.102Z,24.97
2023-02-23T22:07:32.390Z,23.13
2023-02-23T22:09:53.897Z,28.93
2023-02-23T22:12:15.888Z,22.37
2023-02-23T22:14:37.418Z,23.10
2023-02-23T22:16:59.342Z,21.30
2023-02-23T22:19:21.160Z,26.87
2023-02-23T22:21:43.529Z,25.70
2023-02-23T22:24:06.233Z,20.97
2023-02-23T22:26:30.204Z,21.33
2023-02-23T22:28:51.726Z,25.60
2023-02-23T22:31:14.595Z,29.33
2023-02-23T22:33:38.148Z,24.50
2023-02-23T22:36:03.892Z,21.33
2023-02-23T22:38:25.358Z,21.33
2023-02-23T22:40:47.836Z,23.93
2023-02-23T22:43:10.927Z,29.70
2023-02-23T22:45:32.379Z,21.53
2023-02-23T22:47:55.461Z,24.90
2023-02-23T22:50:19.236Z,22.40
2023-02-23T22:52:43.162Z,22.97
2023-02-23T22:55:05.039Z,22.50
2023-02-23T22:57:26.543Z,40.57
2023-02-23T22:59:54.667Z,25.20
2023-02-23T23:02:16.187Z,24.93
2023-02-23T23:04:37.711Z,26.23
2023-02-23T23:06:59.196Z,26.23
2023-02-23T23:09:21.384Z,26.10
2023-02-23T23:11:43.042Z,23.73
2023-02-23T23:14:07.040Z,26.93
2023-02-23T23:16:33.965Z,24.17
2023-02-23T23:18:56.761Z,20.40
2023-02-23T23:21:22.021Z,22.73
2023-02-23T23:23:45.115Z,18.63
2023-02-23T23:26:07.229Z,21.33
2023-02-23T23:28:28.736Z,17.93
2023-02-23T23:30:52.163Z,18.67
2023-02-23T23:33:13.817Z,16.83
2023-02-23T23:35:35.304Z,19.80
2023-02-23T23:37:56.900Z,18.93
2023-02-23T23:40:24.294Z,17.00
2023-02-23T23:42:46.647Z,17.03
2023-02-23T23:45:09.728Z,18.57
2023-02-23T23:47:31.193Z,17.50
2023-02-23T23:49:53.554Z,18.53
2023-02-23T23:52:17.873Z,16.70
2023-02-23T23:54:40.810Z,16.00
2023-02-23T23:57:02.370Z,15.10
2023-02-23T23:59:26.477Z,17.50
